Time;durP1;ratioP1;P1;durP2;ratioP2;P2;SDS_P1;SDS_P2;PMS_P1;PMS_P2;Temp;Humidity;BMP_temperature;BMP_pressure;BME280_temperature;BME280_humidity;BME280_pressure;Samples;Min_cycle;Max_cycle;Signal;HPM_P1;HPM_P2
2022/06/21 00:02:20;;;;;;;0.95;0.80;;;13.70;99.90;;;13.39;100.00;97189.06;4995390;28;20075;-40
2022/06/21 00:04:46;;;;;;;2.53;1.00;;;13.60;99.90;;;13.34;100.00;97189.34;4997791;28;20057;-40
2022/06/21 00:07:20;;;;;;;2.13;0.90;;;13.60;99.90;;;13.33;100.00;97195.56;4994814;28;20556;-40
2022/06/21 00:09:46;;;;;;;2.08;0.95;;;13.60;99.90;;;13.28;100.00;97182.53;4993981;28;20030;-40
2022/06/21 00:12:12;;;;;;;1.30;0.90;;;13.60;99.90;;;13.26;100.00;97179.13;4992958;28;20568;-40
2022/06/21 00:14:40;;;;;;;1.25;0.82;;;13.70;99.90;;;13.23;100.00;97181.06;4997821;28;20104;-40
2022/06/21 00:17:16;;;;;;;2.15;1.02;;;13.60;99.90;;;13.26;100.00;97184.41;4995951;28;20030;-40
2022/06/21 00:19:43;;;;;;;1.38;0.93;;;13.60;99.90;;;13.21;100.00;97188.19;4995007;28;20022;-40
2022/06/21 00:22:16;;;;;;;1.17;0.90;;;13.50;99.90;;;13.17;100.00;97184.84;4996866;28;20030;-40
2022/06/21 00:24:42;;;;;;;1.90;0.90;;;13.50;99.90;;;13.11;100.00;97177.22;4997373;28;20137;-40
2022/06/21 00:27:19;;;;;;;3.15;1.00;;;13.50;99.90;;;13.11;100.00;97172.78;4994851;28;20026;-40
2022/06/21 00:29:45;;;;;;;0.75;0.75;;;13.50;99.90;;;13.02;100.00;97173.25;4997226;28;20032;-40
2022/06/21 00:32:19;;;;;;;4.10;1.00;;;13.40;99.90;;;13.06;100.00;97188.03;4994688;28;20470;-40
2022/06/21 00:34:46;;;;;;;1.42;1.00;;;13.40;99.90;;;13.03;100.00;97185.56;4980844;28;20116;-40
2022/06/21 00:37:19;;;;;;;1.40;1.10;;;13.30;99.90;;;13.05;100.00;97185.50;4994878;28;20418;-40
2022/06/21 00:39:45;;;;;;;2.00;0.80;;;13.40;99.90;;;13.03;100.00;97188.22;4989964;28;20198;-40
2022/06/21 00:42:26;;;;;;;1.52;1.10;;;13.40;99.90;;;12.98;100.00;97187.59;4995229;28;20029;-40
2022/06/21 00:45:14;;;;;;;1.48;1.08;;;13.30;99.90;;;12.88;100.00;97192.47;4973694;28;20029;-40
2022/06/21 00:47:51;;;;;;;1.70;1.00;;;13.20;99.90;;;12.87;100.00;97195.22;4976794;28;20021;-40
2022/06/21 00:50:26;;;;;;;1.33;0.95;;;13.20;99.90;;;12.84;100.00;97179.47;4980096;28;20132;-40
2022/06/21 00:53:15;;;;;;;1.42;0.88;;;13.20;99.90;;;12.80;100.00;97181.41;4996082;28;21074;-40
2022/06/21 00:55:49;;;;;;;1.67;1.33;;;13.10;99.90;;;12.80;100.00;97179.63;4977719;28;20042;-40
2022/06/21 00:58:18;;;;;;;1.02;0.80;;;13.10;99.90;;;12.78;100.00;97170.91;4978550;28;20033;-40
2022/06/21 01:00:55;;;;;;;1.80;1.00;;;13.10;99.90;;;12.75;100.00;97170.19;4995626;28;20128;-40
2022/06/21 01:03:26;;;;;;;1.10;1.00;;;13.10;99.90;;;12.72;100.00;97160.63;4992416;28;20529;-40
2022/06/21 01:05:55;;;;;;;2.38;1.50;;;13.00;99.90;;;12.68;100.00;97174.94;4985805;28;20145;-40
2022/06/21 01:08:33;;;;;;;2.00;1.00;;;13.00;99.90;;;12.62;100.00;97166.47;4980643;28;20045;-40
2022/06/21 01:11:04;;;;;;;1.20;0.90;;;13.00;99.90;;;12.59;100.00;97154.22;4989810;28;20092;-40
2022/06/21 01:13:33;;;;;;;1.23;1.00;;;12.90;99.90;;;12.55;100.00;97166.75;4982010;28;20041;-40
2022/06/21 01:15:59;;;;;;;2.47;0.95;;;12.90;99.90;;;12.55;100.00;97161.44;4989236;28;20113;-40
2022/06/21 01:18:27;;;;;;;1.15;0.93;;;12.90;99.90;;;12.53;100.00;97160.66;4990207;28;20038;-40
2022/06/21 01:20:56;;;;;;;1.23;0.90;;;12.80;99.90;;;12.52;100.00;97155.44;4988439;28;20033;-40
2022/06/21 01:23:46;;;;;;;1.13;1.02;;;12.80;99.90;;;12.47;100.00;97158.34;4982957;28;20032;-40
2022/06/21 01:26:38;;;;;;;0.90;0.80;;;12.90;99.90;;;12.49;100.00;97160.88;4992317;28;20059;-40
2022/06/21 01:29:09;;;;;;;1.20;1.10;;;12.90;99.90;;;12.49;100.00;97155.59;4990070;28;20049;-40
2022/06/21 01:31:35;;;;;;;3.23;1.10;;;12.80;99.90;;;12.49;100.00;97155.59;4992148;28;20242;-40
2022/06/21 01:34:01;;;;;;;1.70;1.38;;;12.80;99.90;;;12.50;100.00;97150.22;4974763;28;20288;-40
2022/06/21 01:36:33;;;;;;;1.73;1.30;;;12.80;99.90;;;12.52;100.00;97136.94;4989754;28;20045;-41
2022/06/21 01:39:08;;;;;;;3.88;1.45;;;12.80;99.90;;;12.53;100.00;97125.44;4993903;28;20537;-40
2022/06/21 01:41:43;;;;;;;1.85;1.20;;;12.80;99.90;;;12.51;100.00;97124.66;4992185;28;20069;-40
2022/06/21 01:44:16;;;;;;;2.45;1.20;;;12.80;99.90;;;12.48;100.00;97115.06;4995929;28;20033;-40
2022/06/21 01:46:42;;;;;;;1.40;1.00;;;12.80;99.90;;;12.46;100.00;97105.50;4995279;28;20033;-40
2022/06/21 01:49:14;;;;;;;2.25;1.30;;;12.80;99.90;;;12.41;100.00;97100.44;4976342;28;20030;-40
2022/06/21 01:51:58;;;;;;;2.65;1.40;;;12.80;99.90;;;12.40;100.00;97094.28;4982078;28;20386;-40
2022/06/21 01:54:30;;;;;;;1.40;1.20;;;12.70;99.90;;;12.37;100.00;97090.94;4991104;28;20046;-40
2022/06/21 01:56:55;;;;;;;2.75;1.23;;;12.70;99.90;;;12.31;100.00;97086.81;4994206;28;20037;-40
2022/06/21 01:59:33;;;;;;;3.28;1.40;;;12.70;99.90;;;12.25;100.00;97089.75;4980937;28;20040;-40
2022/06/21 02:02:05;;;;;;;1.40;1.10;;;12.60;99.90;;;12.22;100.00;97085.47;4972668;28;20417;-40
2022/06/21 02:04:42;;;;;;;2.58;1.30;;;12.60;99.90;;;12.19;100.00;97096.19;4974025;28;20022;-40
2022/06/21 02:07:14;;;;;;;2.47;1.10;;;12.50;99.90;;;12.12;100.00;97104.50;4997376;28;20365;-40
2022/06/21 02:09:54;;;;;;;1.60;1.10;;;12.50;99.90;;;12.13;100.00;97098.25;4971178;28;20156;-40
2022/06/21 02:12:19;;;;;;;1.50;0.95;;;12.50;99.90;;;12.03;100.00;97066.16;4995023;28;20034;-40
2022/06/21 02:14:50;;;;;;;2.15;1.08;;;12.50;99.90;;;12.14;100.00;97090.25;4991376;28;20390;-40
2022/06/21 02:17:21;;;;;;;3.72;1.52;;;12.50;99.90;;;12.09;100.00;97086.97;4993099;28;20491;-40
2022/06/21 02:20:07;;;;;;;1.88;1.40;;;12.50;99.90;;;12.09;100.00;97084.34;4990973;28;20401;-40
2022/06/21 02:22:34;;;;;;;1.63;1.50;;;12.50;99.90;;;12.12;100.00;97078.91;4977928;28;20041;-41
2022/06/21 02:25:01;;;;;;;1.42;1.20;;;12.50;99.90;;;12.11;100.00;97076.34;4996407;28;20077;-40
2022/06/21 02:27:34;;;;;;;1.15;1.00;;;12.50;99.90;;;12.12;100.00;97080.72;4995290;28;20129;-41
2022/06/21 02:30:06;;;;;;;1.67;1.13;;;12.50;99.90;;;12.13;100.00;97082.41;4994094;28;20030;-40
2022/06/21 02:32:38;;;;;;;3.13;1.20;;;12.50;99.90;;;12.12;100.00;97081.56;4995558;28;20034;-40
2022/06/21 02:35:41;;;;;;;1.43;1.17;;;12.50;99.90;;;12.12;100.00;97083.34;4993099;28;20037;-40
2022/06/21 02:38:18;;;;;;;2.05;1.27;;;12.50;99.90;;;12.12;100.00;97084.19;4986640;28;20107;-40
2022/06/21 02:40:51;;;;;;;1.80;1.30;;;12.50;99.90;;;12.14;100.00;97092.91;4989778;28;20037;-40
2022/06/21 02:43:29;;;;;;;1.73;1.30;;;12.50;99.90;;;12.19;100.00;97084.75;4980070;28;20030;-40
2022/06/21 02:46:08;;;;;;;1.48;1.02;;;12.50;99.90;;;12.16;100.00;97061.13;4990751;28;20096;-40
2022/06/21 02:48:46;;;;;;;2.78;1.00;;;12.50;99.90;;;12.20;100.00;97078.53;4976034;28;20018;-40
2022/06/21 02:51:20;;;;;;;1.50;1.13;;;12.50;99.90;;;12.24;100.00;97074.81;4970290;28;20034;-40
2022/06/21 02:54:07;;;;;;;3.03;1.40;;;12.60;99.90;;;12.23;100.00;97078.38;4994716;28;20751;-40
2022/06/21 02:57:20;;;;;;;1.38;1.02;;;12.60;99.90;;;12.26;100.00;97082.66;4996500;28;20041;-40
2022/06/21 02:59:47;;;;;;;3.38;1.20;;;12.70;99.90;;;12.26;100.00;97088.81;4978632;28;20034;-40
2022/06/21 03:02:20;;;;;;;2.20;1.27;;;12.70;99.90;;;12.36;100.00;97087.44;4968155;28;20402;-40
2022/06/21 03:04:53;;;;;;;2.15;1.20;;;12.70;99.90;;;12.39;100.00;97087.28;4991953;28;20032;-40
2022/06/21 03:07:24;;;;;;;;;;;12.70;99.90;;;12.40;98.56;97080.22;4983889;28;20498;-40
2022/06/21 03:09:53;;;;;;;1.98;1.13;;;12.80;99.90;;;12.44;97.33;97070.34;4991279;28;19921;-40
2022/06/21 03:12:24;;;;;;;1.88;1.10;;;12.80;99.90;;;12.32;98.05;97048.00;4990732;28;20041;-40
2022/06/21 03:14:54;;;;;;;1.88;1.25;;;12.80;99.90;;;12.38;99.22;97052.97;4987811;28;20785;-40
2022/06/21 03:17:27;;;;;;;1.08;0.93;;;12.80;99.90;;;12.47;100.00;97063.13;4979177;28;20070;-40
2022/06/21 03:19:53;;;;;;;1.45;1.17;;;12.80;99.90;;;12.47;100.00;97071.06;4994891;28;20516;-40
2022/06/21 03:22:33;;;;;;;3.45;1.20;;;12.80;99.90;;;12.46;100.00;97068.47;4994314;28;20053;-40
2022/06/21 03:25:06;;;;;;;1.40;0.90;;;12.80;99.90;;;12.47;100.00;97071.06;4993334;28;20346;-40
2022/06/21 03:27:46;;;;;;;;;;;12.80;99.90;;;12.44;100.00;97059.78;4991211;28;20120;-40
2022/06/21 03:30:13;;;;;;;1.08;0.88;;;12.80;99.90;;;12.49;100.00;97052.44;4981146;28;19922;-40
2022/06/21 03:32:39;;;;;;;2.15;1.20;;;12.80;99.90;;;12.43;99.80;97053.59;4991176;28;20037;-40
2022/06/21 03:35:06;;;;;;;1.55;1.10;;;12.90;99.90;;;12.36;99.73;97031.03;4994795;28;20065;-40
2022/06/21 03:37:38;;;;;;;1.20;1.10;;;12.80;99.90;;;12.56;99.72;97049.44;4994706;28;20054;-40
2022/06/21 03:42:54;;;;;;;1.50;0.98;;;12.90;99.90;;;12.63;100.00;97042.00;4980925;28;20563;-40
2022/06/21 03:45:35;;;;;;;1.40;1.10;;;13.00;99.90;;;12.69;99.98;97052.31;4977794;28;20486;-40
2022/06/21 03:48:16;;;;;;;1.60;1.00;;;13.00;99.90;;;12.68;99.07;97039.16;4989203;28;20520;-40
2022/06/21 03:50:53;;;;;;;1.70;1.05;;;13.10;99.90;;;12.80;99.05;97051.75;4977836;28;20045;-40
2022/06/21 03:53:35;;;;;;;1.33;0.88;;;13.20;99.90;;;12.91;98.90;97053.84;4997271;28;20101;-40
2022/06/21 03:56:41;;;;;;;1.88;1.10;;;13.20;99.90;;;13.02;99.14;97056.78;4977780;28;20042;-40
2022/06/21 03:59:38;;;;;;;1.70;1.30;;;13.30;99.90;;;13.13;99.32;97058.88;4992070;28;20049;-40
2022/06/21 04:02:15;;;;;;;1.88;1.08;;;13.40;99.90;;;13.29;98.53;97046.53;4990829;28;20482;-40
2022/06/21 04:04:56;;;;;;;1.83;1.17;;;13.60;99.90;;;13.35;97.96;97035.66;4993035;28;20449;-40
2022/06/21 04:07:34;;;;;;;1.55;1.15;;;13.70;99.90;;;13.51;97.42;97040.09;4992700;28;20030;-40
2022/06/21 04:10:22;;;;;;;1.50;1.10;;;13.80;99.90;;;13.64;95.99;97038.50;4992607;28;20057;-40
2022/06/21 04:12:59;;;;;;;2.17;1.20;;;13.90;99.90;;;13.78;92.64;97031.56;4976123;28;20029;-40
2022/06/21 04:16:04;;;;;;;1.75;1.10;;;14.00;99.90;;;13.96;90.69;97035.84;4992447;22;20057;-40
2022/06/21 04:18:45;;;;;;;1.65;1.25;;;14.20;99.90;;;14.09;81.10;97028.91;4990445;28;20064;-39
2022/06/21 04:21:26;;;;;;;3.03;1.50;;;14.40;99.90;;;14.31;80.88;97038.28;4992583;28;20025;-40
2022/06/21 04:24:15;;;;;;;3.72;1.38;;;14.60;99.90;;;14.48;75.54;97048.78;4991765;28;20040;-40
2022/06/21 04:26:57;;;;;;;3.50;1.70;;;14.70;99.90;;;14.64;73.65;97056.72;4969863;28;20041;-40
2022/06/21 04:30:04;;;;;;;3.05;1.35;;;14.90;99.90;;;14.85;72.36;97049.28;4976113;28;20038;-40
2022/06/21 04:32:47;;;;;;;1.92;1.17;;;15.10;99.90;;;15.02;76.39;97048.28;4902424;29;20612;-40
2022/06/21 04:35:30;;;;;;;2.20;1.30;;;15.30;99.90;;;15.15;76.17;97056.34;4971926;28;20127;-40
2022/06/21 04:38:06;;;;;;;3.05;1.63;;;15.40;99.90;;;15.26;73.80;97042.41;4960048;28;20057;-40
2022/06/21 04:40:49;;;;;;;2.67;1.45;;;15.50;99.90;;;15.34;69.78;97044.59;4972769;28;20881;-40
2022/06/21 04:43:32;;;;;;;2.15;1.20;;;15.60;99.90;;;15.36;70.76;97024.09;4979832;28;20431;-40
2022/06/21 04:46:24;;;;;;;3.80;1.55;;;15.60;99.90;;;15.45;69.15;97040.34;4968998;28;20022;-40
2022/06/21 04:49:27;;;;;;;2.83;1.42;;;15.70;99.90;;;15.52;66.82;97040.78;4971766;28;20219;-40
2022/06/21 04:52:17;;;;;;;3.88;1.58;;;15.80;99.90;;;15.59;68.27;97034.13;4942978;28;20030;-41
2022/06/21 04:54:43;;;;;;;3.25;1.52;;;15.80;99.90;;;15.60;69.39;97027.88;4963963;28;20625;-40
2022/06/21 04:57:22;;;;;;;4.22;1.52;;;15.90;99.90;;;15.65;71.63;97031.09;4970742;28;20037;-40
2022/06/21 04:59:52;;;;;;;6.03;1.60;;;15.90;99.90;;;15.69;72.89;97030.91;4959545;28;20085;-40
2022/06/21 05:02:44;;;;;;;1.65;1.30;;;15.90;99.90;;;15.74;71.18;97032.34;4956143;28;20046;-40
2022/06/21 05:05:28;;;;;;;2.70;1.42;;;15.90;99.90;;;15.93;67.06;97040.00;4957231;28;20038;-40
2022/06/21 05:08:19;;;;;;;2.47;1.30;;;16.00;99.90;;;16.36;65.56;97037.19;4976752;28;20038;-40
2022/06/21 05:10:50;;;;;;;3.38;1.50;;;16.20;99.90;;;16.74;65.11;97043.56;4957832;28;20030;-40
2022/06/21 05:13:38;;;;;;;3.25;1.42;;;16.50;99.90;;;17.01;64.23;97037.38;4978467;28;20069;-41
2022/06/21 05:16:18;;;;;;;2.30;1.60;;;16.70;99.90;;;17.35;60.24;97038.53;4985194;28;20030;-40
2022/06/21 05:18:51;;;;;;;4.80;1.65;;;17.00;99.90;;;17.68;57.20;97042.47;4982418;28;20030;-40
2022/06/21 05:21:29;;;;;;;2.83;1.42;;;17.30;99.90;;;18.15;56.55;97050.69;4982513;28;20026;-40
2022/06/21 05:23:55;;;;;;;2.75;1.40;;;17.60;99.90;;;18.47;54.10;97051.00;4966047;28;20030;-40
2022/06/21 05:26:40;;;;;;;4.22;1.60;;;17.90;99.90;;;18.88;55.20;97041.72;4983276;28;20027;-40
2022/06/21 05:29:22;;;;;;;4.40;2.22;;;18.20;99.90;;;19.36;51.08;97035.34;4962360;28;20869;-40
2022/06/21 05:31:56;;;;;;;4.72;1.33;;;18.60;99.40;;;19.63;49.77;97033.19;4959936;28;20035;-41
2022/06/21 05:34:33;;;;;;;4.68;1.73;;;18.90;97.80;;;19.83;49.42;97028.09;4964840;28;20133;-40
2022/06/21 05:37:15;;;;;;;3.53;1.30;;;19.10;97.30;;;19.81;55.61;97024.66;4963425;28;20029;-40
2022/06/21 05:39:48;;;;;;;2.65;1.40;;;19.20;99.90;;;19.77;52.08;97034.75;4965386;28;20459;-40
2022/06/21 05:42:16;;;;;;;3.47;1.80;;;19.40;98.80;;;19.67;49.45;97031.09;4981223;28;20035;-41
2022/06/21 05:44:53;;;;;;;2.17;1.20;;;19.40;96.50;;;19.70;48.77;97038.03;4975042;28;20413;-41
2022/06/21 05:47:40;;;;;;;3.67;1.42;;;19.50;95.30;;;19.82;48.38;97037.91;4983979;28;20088;-42
2022/06/21 05:50:11;;;;;;;4.75;1.30;;;19.70;95.00;;;19.82;48.45;97037.09;4983720;28;20034;-40
2022/06/21 05:52:43;;;;;;;2.65;1.50;;;19.80;94.30;;;19.67;48.53;97035.59;4966258;28;20572;-40
2022/06/21 05:55:17;;;;;;;4.07;1.40;;;19.80;93.60;;;19.46;48.31;97039.84;4962427;28;20034;-41
2022/06/21 05:57:54;;;;;;;2.63;1.42;;;19.60;93.50;;;19.31;49.12;97046.41;4976671;28;20356;-41
2022/06/21 06:00:40;;;;;;;2.55;1.45;;;19.50;93.90;;;19.08;49.04;97056.22;4963210;28;20038;-41
2022/06/21 06:03:30;;;;;;;3.40;1.20;;;19.30;94.00;;;18.84;49.87;97067.81;4956783;28;20033;-41
2022/06/21 06:05:58;;;;;;;3.47;1.30;;;19.10;94.00;;;18.69;50.99;97067.09;4979970;28;20030;-40
2022/06/21 06:08:30;;;;;;;3.28;1.40;;;18.90;94.20;;;18.61;51.05;97060.63;4960533;28;20116;-41
2022/06/21 06:10:57;;;;;;;2.25;1.50;;;18.80;94.40;;;18.54;51.88;97070.06;4977708;28;20042;-41
2022/06/21 06:13:33;;;;;;;1.45;1.20;;;18.80;95.20;;;18.55;52.75;97058.41;4973687;28;20524;-40
2022/06/21 06:16:05;;;;;;;3.35;1.30;;;18.70;95.40;;;18.58;52.95;97058.19;4959882;28;20930;-41
2022/06/21 06:18:43;;;;;;;3.65;1.48;;;18.70;95.50;;;18.55;54.46;97061.94;4962078;28;20065;-43
2022/06/21 06:21:46;;;;;;;2.08;1.23;;;18.70;95.90;;;18.41;51.74;97056.75;4962538;28;20038;-41
2022/06/21 06:24:20;;;;;;;4.35;1.13;;;18.60;94.60;;;18.31;52.92;97059.28;4978864;28;20501;-42
2022/06/21 06:26:50;;;;;;;1.52;1.08;;;18.40;95.20;;;18.31;54.16;97060.13;4976419;28;20461;-42
2022/06/21 06:29:26;;;;;;;6.22;1.42;;;18.40;95.50;;;18.43;54.53;97063.72;4964245;28;20123;-41
2022/06/21 06:32:14;;;;;;;3.90;1.33;;;18.50;96.60;;;18.58;51.68;97063.53;4962245;28;20122;-42
2022/06/21 06:34:45;;;;;;;2.55;1.45;;;18.60;95.10;;;18.70;50.56;97066.13;4982142;28;20023;-42
2022/06/21 06:37:36;;;;;;;4.57;2.05;;;18.80;94.10;;;18.79;50.58;97058.38;4964386;28;20490;-44
2022/06/21 06:40:06;;;;;;;4.37;1.10;;;18.90;93.70;;;18.93;50.42;97065.38;4965427;28;20692;-41
2022/06/21 06:42:38;;;;;;;2.70;1.20;;;19.00;93.70;;;19.01;50.79;97058.50;4962689;28;20037;-42
2022/06/21 06:45:17;;;;;;;2.35;1.30;;;19.10;93.70;;;19.02;49.39;97054.88;4981153;28;20038;-41
2022/06/21 06:47:56;;;;;;;3.83;1.30;;;19.10;93.30;;;19.12;49.22;97059.50;4981335;28;20089;-41
2022/06/21 06:50:32;;;;;;;2.05;1.50;;;19.20;93.10;;;19.24;48.33;97066.56;4978098;28;20046;-41
2022/06/21 06:53:34;;;;;;;2.50;1.48;;;19.30;92.40;;;19.16;49.19;97048.44;4978771;28;20517;-41
2022/06/21 06:56:09;;;;;;;2.38;1.38;;;19.40;92.90;;;19.24;49.33;97039.84;4978684;28;20117;-41
2022/06/21 06:58:44;;;;;;;1.85;1.33;;;19.40;92.80;;;19.32;49.41;97044.59;4963375;28;20061;-41
2022/06/21 07:01:15;;;;;;;5.22;1.45;;;19.50;92.70;;;19.41;50.05;97035.84;4974416;28;20042;-43
2022/06/21 07:04:03;;;;;;;3.20;1.60;;;19.50;92.90;;;19.50;50.07;97048.47;4972715;28;20034;-41
2022/06/21 07:06:47;;;;;;;2.92;1.50;;;19.70;93.00;;;19.59;49.75;97052.25;4975066;28;20046;-41
2022/06/21 07:09:31;;;;;;;2.97;1.50;;;19.80;92.90;;;19.69;49.62;97063.94;4978606;28;20050;-41
2022/06/21 07:12:17;;;;;;;2.40;1.25;;;19.80;92.40;;;19.75;48.66;97054.59;4980943;28;20121;-41
2022/06/21 07:14:44;;;;;;;2.53;1.20;;;19.90;92.40;;;19.83;49.34;97062.88;4974651;28;20042;-41
2022/06/21 07:17:22;;;;;;;3.25;1.33;;;20.00;92.20;;;19.97;48.75;97064.41;4975673;28;20053;-41
2022/06/21 07:19:50;;;;;;;7.53;1.70;;;20.10;92.30;;;20.32;48.21;97068.75;4976937;28;20121;-41
2022/06/21 07:22:19;;;;;;;3.80;1.50;;;20.50;91.90;;;20.72;47.03;97079.72;4957690;28;20045;-42
2022/06/21 07:25:14;;;;;;;6.10;1.60;;;20.90;90.90;;;21.21;46.57;97084.63;4975773;28;20030;-42
2022/06/21 07:27:44;;;;;;;4.32;1.80;;;21.40;90.60;;;21.42;45.26;97082.78;4975338;28;20042;-42
2022/06/21 07:30:13;;;;;;;3.25;1.60;;;21.70;90.10;;;21.47;44.81;97082.44;4974084;28;20725;-42
2022/06/21 07:32:49;;;;;;;3.60;1.30;;;21.70;88.40;;;21.52;45.08;97089.09;4961720;28;20049;-44
2022/06/21 07:35:27;;;;;;;3.30;1.80;;;21.60;88.50;;;21.39;44.94;97084.88;4970994;28;20041;-43
2022/06/21 07:38:07;;;;;;;3.47;1.70;;;21.60;87.50;;;21.27;45.76;97078.75;4973989;28;20038;-42
2022/06/21 07:40:46;;;;;;;2.83;1.35;;;21.50;88.50;;;21.30;45.56;97081.16;4960030;28;20533;-42
2022/06/21 07:43:26;;;;;;;2.50;1.30;;;21.50;88.60;;;21.48;45.68;97087.66;4962284;28;20041;-41
2022/06/21 07:45:57;;;;;;;4.10;1.70;;;21.60;89.50;;;21.58;45.22;97081.50;4968404;28;21121;-42
2022/06/21 07:48:39;;;;;;;2.30;1.42;;;21.60;88.00;;;21.44;44.75;97051.31;4962029;28;20026;-43
2022/06/21 07:51:16;;;;;;;3.70;1.80;;;21.60;87.10;;;21.40;44.01;97067.81;4973610;28;20494;-42
2022/06/21 07:54:33;;;;;;;3.47;1.60;;;21.60;86.90;;;21.45;44.30;97055.72;4973618;28;20044;-42
2022/06/21 07:57:05;;;;;;;2.97;1.60;;;21.50;85.80;;;;;;4974206;28;20457;-42
2022/06/21 07:59:38;;;;;;;3.13;1.60;;;21.40;87.70;;;21.40;43.97;97043.66;4975797;28;20494;-42
2022/06/21 08:09:08;;;;;;;5.22;1.45;;;21.70;82.90;;;21.53;44.44;97021.03;4962854;28;20292;-42
2022/06/21 08:11:40;;;;;;;3.22;1.50;;;21.70;85.10;;;21.28;44.87;97014.25;4977485;28;20125;-41
2022/06/21 08:14:08;;;;;;;3.15;1.40;;;21.50;84.60;;;21.12;45.68;97006.69;4977612;28;20054;-42
2022/06/21 08:16:43;;;;;;;3.00;1.67;;;21.30;86.50;;;20.98;46.15;97010.53;4974621;28;20125;-41
2022/06/21 08:19:26;;;;;;;2.72;1.50;;;21.20;86.30;;;20.87;46.42;97013.28;4961524;28;20045;-42
2022/06/21 08:22:04;;;;;;;3.70;1.42;;;21.20;87.30;;;20.86;46.34;97011.59;4977908;28;20038;-43
2022/06/21 08:25:02;;;;;;;3.70;1.48;;;21.20;86.70;;;21.04;45.04;96992.22;4960577;28;20507;-42
2022/06/21 08:28:17;;;;;;;2.83;1.60;;;21.20;86.30;;;21.06;45.20;96990.25;4951003;28;20457;-42
2022/06/21 08:30:52;;;;;;;4.38;1.65;;;21.40;85.20;;;21.42;45.69;97006.81;4965174;28;20051;-41
2022/06/21 08:33:35;;;;;;;3.83;1.58;;;21.60;85.20;;;21.46;45.02;97008.28;4980398;28;20038;-44
2022/06/21 08:36:11;;;;;;;4.18;1.60;;;21.60;85.00;;;21.49;46.11;97003.50;4977654;28;20034;-43
2022/06/21 08:39:00;;;;;;;3.92;1.67;;;21.70;85.90;;;21.49;50.93;97003.50;4978420;28;20062;-42
2022/06/21 08:41:53;;;;;;;2.45;1.33;;;21.70;90.60;;;21.53;48.44;97007.63;4979151;28;20038;-41
2022/06/21 08:44:43;;;;;;;3.88;1.50;;;21.70;90.20;;;21.65;47.99;97023.63;4977935;28;20041;-42
2022/06/21 08:47:39;;;;;;;3.42;1.60;;;21.80;88.60;;;21.79;48.39;97036.69;4973776;28;20043;-41
2022/06/21 08:50:32;;;;;;;6.45;1.85;;;22.00;89.10;;;21.86;47.92;97051.25;4973056;28;20030;-41
2022/06/21 08:53:33;;;;;;;2.60;1.52;;;22.10;89.70;;;21.93;47.93;97028.25;4975881;28;20140;-43
2022/06/21 08:56:24;;;;;;;4.28;1.67;;;22.20;90.40;;;22.03;45.35;97012.16;4968351;28;20077;-43
2022/06/21 08:59:28;;;;;;;4.65;1.90;;;22.20;85.30;;;22.02;45.81;96994.38;4957399;28;20133;-42
2022/06/21 09:02:21;;;;;;;2.42;1.40;;;22.20;84.60;;;22.05;45.59;97012.03;4975086;28;20061;-41
2022/06/21 09:05:37;;;;;;;2.72;1.67;;;22.20;85.40;;;21.99;47.14;97009.91;4978484;28;20027;-41
2022/06/21 09:09:04;;;;;;;4.75;1.60;;;22.10;86.70;;;22.05;46.65;97003.97;4977950;28;20042;-42
2022/06/21 09:12:20;;;;;;;4.20;2.00;;;22.20;88.30;;;22.41;48.47;97005.16;4976662;28;20053;-43
2022/06/21 09:15:18;;;;;;;4.13;1.75;;;22.50;87.00;;;23.05;44.07;96997.53;4977418;28;20451;-42
2022/06/21 09:18:26;;;;;;;2.50;1.70;;;23.10;85.00;;;23.39;42.74;97005.09;4957573;28;20022;-41
2022/06/21 09:21:03;;;;;;;2.45;1.63;;;23.50;81.90;;;23.57;41.59;97007.88;4977192;28;20038;-42
2022/06/21 09:23:50;;;;;;;5.82;1.83;;;23.70;79.10;;;23.64;41.55;97007.13;4979957;28;20042;-41
2022/06/21 09:26:59;;;;;;;3.03;1.75;;;23.80;79.60;;;23.68;42.03;97007.69;4959025;28;20031;-42
2022/06/21 09:29:40;;;;;;;4.03;1.85;;;23.90;79.90;;;23.72;41.86;97014.44;4978933;28;20038;-44
2022/06/21 09:32:18;;;;;;;4.20;2.03;;;23.80;79.40;;;23.66;42.53;97017.75;4961404;28;20668;-43
2022/06/21 09:35:02;;;;;;;3.80;2.05;;;23.80;79.40;;;23.53;41.05;97015.41;4975479;28;20035;-43
2022/06/21 09:38:11;;;;;;;2.55;1.58;;;23.80;78.00;;;23.55;43.39;97018.78;4974461;28;20486;-43
2022/06/21 09:40:52;;;;;;;3.40;1.63;;;23.70;78.80;;;23.56;41.89;97014.25;4958770;28;20034;-42
2022/06/21 09:43:24;;;;;;;3.55;1.90;;;23.70;78.60;;;23.51;41.93;97017.38;4976427;28;20026;-42
2022/06/21 09:45:53;;;;;;;;;;;23.80;78.30;;;23.61;43.98;97006.56;4977100;28;20117;-41
2022/06/21 09:48:48;;;;;;;4.07;1.95;;;23.80;79.70;;;23.67;42.39;97018.59;4973699;28;19976;-42
2022/06/21 09:51:35;;;;;;;4.07;1.90;;;23.80;78.60;;;23.51;41.61;97016.53;4975077;28;20034;-42
2022/06/21 09:54:28;;;;;;;3.40;1.70;;;23.70;77.10;;;23.28;43.25;96992.69;4954853;28;20032;-41
2022/06/21 09:57:03;;;;;;;;;;;23.60;79.90;;;23.32;42.96;97002.16;4961355;28;20022;-42
2022/06/21 10:00:05;;;;;;;4.40;2.10;;;23.60;79.20;;;23.29;42.54;96991.66;4954961;28;20064;-43
2022/06/21 10:03:03;;;;;;;2.97;1.80;;;23.60;79.60;;;23.21;43.03;96987.03;4977383;28;20538;-42
2022/06/21 10:06:25;;;;;;;2.33;1.70;;;23.40;79.60;;;23.21;44.11;96987.03;4977880;28;20030;-42
2022/06/21 10:09:27;;;;;;;3.72;2.17;;;23.40;80.90;;;23.25;43.51;96992.97;4979349;28;20037;-42
2022/06/21 10:12:35;;;;;;;4.85;2.10;;;23.50;79.40;;;23.27;43.13;96982.06;4978432;28;20150;-41
2022/06/21 10:18:18;;;;;;;3.05;1.77;;;23.50;79.70;;;23.29;43.74;96983.59;5035788;28;20071;-45
2022/06/21 10:21:08;;;;;;;5.57;2.42;;;23.50;79.70;;;23.14;43.81;96979.69;5015796;28;20041;-43
2022/06/21 10:24:10;;;;;;;4.15;1.88;;;23.40;78.60;;;23.20;44.55;96973.72;5018509;28;20033;-45
2022/06/21 10:26:59;;;;;;;3.17;1.88;;;23.40;81.40;;;23.35;45.28;96971.41;5017251;28;20072;-44
2022/06/21 10:29:43;;;;;;;9.85;2.30;;;23.50;81.50;;;23.30;44.74;96953.03;5035929;28;20481;-45
2022/06/21 10:32:12;;;;;;;3.53;2.13;;;23.60;79.70;;;23.37;45.77;96956.81;5036153;28;20042;-46
2022/06/21 10:35:35;;;;;;;3.35;2.30;;;23.60;82.50;;;23.51;44.87;96954.63;5021490;28;20044;-44
2022/06/21 10:38:47;;;;;;;4.13;2.17;;;23.70;80.60;;;23.58;44.66;96942.25;4989212;28;20061;-44
2022/06/21 10:45:14;;;;;;;6.00;2.33;;;23.80;81.10;;;23.74;45.72;96920.09;5033837;28;20040;-43
2022/06/21 10:48:46;;;;;;;5.75;2.30;;;23.80;82.30;;;23.77;43.61;96917.94;5030762;28;20552;-44
2022/06/21 10:51:53;;;;;;;3.85;1.75;;;23.90;79.90;;;23.84;44.87;96920.91;4998870;28;20041;-44
2022/06/21 10:54:50;;;;;;;7.30;2.45;;;24.00;81.90;;;23.91;44.47;96918.47;5034459;28;20037;-42
2022/06/21 10:57:56;;;;;;;5.25;2.40;;;24.00;81.00;;;23.87;45.83;96900.91;5037230;28;20118;-44
2022/06/21 11:04:19;;;;;;;6.00;2.20;;;24.00;81.40;;;24.02;45.86;96902.09;5034196;28;20140;-43
2022/06/21 11:07:11;;;;;;;4.47;2.30;;;24.10;82.60;;;24.16;45.17;96901.53;5039590;28;20671;-42
2022/06/21 11:09:58;;;;;;;3.90;2.30;;;24.20;81.10;;;24.22;44.68;96905.47;5024166;28;20112;-43
2022/06/21 11:12:52;;;;;;;4.35;2.20;;;24.30;81.00;;;24.30;45.22;96900.16;5017442;28;20045;-42
2022/06/21 11:16:08;;;;;;;4.72;2.55;;;24.40;81.60;;;24.43;45.95;96905.16;5036254;28;20029;-45
2022/06/21 11:18:54;;;;;;;5.63;2.63;;;24.60;83.30;;;24.47;45.81;96903.00;5034711;28;20112;-44
2022/06/21 11:21:42;;;;;;;5.97;2.20;;;24.60;83.30;;;24.58;45.86;96902.78;5037566;28;20103;-43
2022/06/21 11:24:57;;;;;;;6.40;2.88;;;24.70;82.80;;;24.77;46.16;96896.34;5035149;28;20063;-44
2022/06/21 11:28:02;;;;;;;3.70;2.30;;;24.90;83.20;;;24.85;45.93;96896.38;5037857;28;20036;-43
2022/06/21 11:30:55;;;;;;;5.68;2.40;;;25.00;82.40;;;25.10;44.76;96894.69;5032695;28;20025;-43
2022/06/21 11:33:40;;;;;;;4.32;2.47;;;;;;;25.50;45.33;96892.38;5037059;28;20029;-43
2022/06/21 11:36:30;;;;;;;6.63;2.40;;;25.60;80.70;;;25.95;43.53;96879.53;5036008;28;20170;-42
2022/06/21 11:39:11;;;;;;;5.25;2.63;;;26.10;80.80;;;26.24;42.93;96868.28;5023568;28;20060;-43